sensor_id;sensor_type;location;lat;lon;timestamp;temperature;humidity
42037;DHT22;30340;52.004;5.908;2023-05-10T00:00:00;15.60;91.70
42037;DHT22;30340;52.004;5.908;2023-05-10T00:02:25;15.50;91.70
42037;DHT22;30340;52.004;5.908;2023-05-10T00:04:51;15.60;91.60
42037;DHT22;30340;52.004;5.908;2023-05-10T00:07:17;15.60;91.60
42037;DHT22;30340;52.004;5.908;2023-05-10T00:09:43;15.60;91.70
42037;DHT22;30340;52.004;5.908;2023-05-10T00:12:09;15.50;91.70
42037;DHT22;30340;52.004;5.908;2023-05-10T00:14:34;15.50;91.70
42037;DHT22;30340;52.004;5.908;2023-05-10T00:17:00;15.60;91.70
42037;DHT22;30340;52.004;5.908;2023-05-10T00:19:26;15.60;91.80
42037;DHT22;30340;52.004;5.908;2023-05-10T00:21:51;15.50;91.70
42037;DHT22;30340;52.004;5.908;2023-05-10T00:24:17;15.60;91.80
42037;DHT22;30340;52.004;5.908;2023-05-10T00:26:42;15.60;91.70
42037;DHT22;30340;52.004;5.908;2023-05-10T00:29:08;15.50;91.70
42037;DHT22;30340;52.004;5.908;2023-05-10T00:31:33;15.50;91.70
42037;DHT22;30340;52.004;5.908;2023-05-10T00:33:59;15.60;91.80
42037;DHT22;30340;52.004;5.908;2023-05-10T00:36:24;15.60;91.80
42037;DHT22;30340;52.004;5.908;2023-05-10T00:38:50;15.60;91.80
42037;DHT22;30340;52.004;5.908;2023-05-10T00:41:16;15.60;91.70
42037;DHT22;30340;52.004;5.908;2023-05-10T00:43:41;15.60;91.70
42037;DHT22;30340;52.004;5.908;2023-05-10T00:46:07;15.60;91.80
42037;DHT22;30340;52.004;5.908;2023-05-10T00:48:33;15.60;91.80
42037;DHT22;30340;52.004;5.908;2023-05-10T00:50:59;15.60;91.80
42037;DHT22;30340;52.004;5.908;2023-05-10T00:53:25;15.60;91.80
42037;DHT22;30340;52.004;5.908;2023-05-10T00:55:51;15.60;91.80
42037;DHT22;30340;52.004;5.908;2023-05-10T00:58:17;15.60;91.80
42037;DHT22;30340;52.004;5.908;2023-05-10T01:00:42;15.60;91.80
42037;DHT22;30340;52.004;5.908;2023-05-10T01:03:11;15.60;91.80
42037;DHT22;30340;52.004;5.908;2023-05-10T01:05:37;15.60;91.80
42037;DHT22;30340;52.004;5.908;2023-05-10T01:08:03;15.70;91.80
42037;DHT22;30340;52.004;5.908;2023-05-10T01:10:29;15.70;91.80
42037;DHT22;30340;52.004;5.908;2023-05-10T01:12:55;15.70;91.80
42037;DHT22;30340;52.004;5.908;2023-05-10T01:15:21;15.60;91.70
42037;DHT22;30340;52.004;5.908;2023-05-10T01:17:47;15.60;91.70
42037;DHT22;30340;52.004;5.908;2023-05-10T01:20:14;15.60;91.80
42037;DHT22;30340;52.004;5.908;2023-05-10T01:28:17;15.60;91.80
42037;DHT22;30340;52.004;5.908;2023-05-10T01:31:07;15.60;91.80
42037;DHT22;30340;52.004;5.908;2023-05-10T01:36:22;15.60;91.80
42037;DHT22;30340;52.004;5.908;2023-05-10T01:39:15;15.60;91.80
42037;DHT22;30340;52.004;5.908;2023-05-10T01:41:48;15.60;91.90
42037;DHT22;30340;52.004;5.908;2023-05-10T01:44:20;15.60;91.90
42037;DHT22;30340;52.004;5.908;2023-05-10T01:46:54;15.60;91.90
42037;DHT22;30340;52.004;5.908;2023-05-10T01:49:30;15.60;91.90
42037;DHT22;30340;52.004;5.908;2023-05-10T01:52:04;15.60;91.90
42037;DHT22;30340;52.004;5.908;2023-05-10T01:54:33;15.60;91.90
42037;DHT22;30340;52.004;5.908;2023-05-10T01:57:03;15.50;91.90
42037;DHT22;30340;52.004;5.908;2023-05-10T01:59:34;15.50;92.00
42037;DHT22;30340;52.004;5.908;2023-05-10T02:02:05;15.50;92.00
42037;DHT22;30340;52.004;5.908;2023-05-10T02:04:31;15.50;92.00
42037;DHT22;30340;52.004;5.908;2023-05-10T02:06:58;15.50;92.10
42037;DHT22;30340;52.004;5.908;2023-05-10T02:09:25;15.50;92.20
42037;DHT22;30340;52.004;5.908;2023-05-10T02:11:53;15.50;92.20
42037;DHT22;30340;52.004;5.908;2023-05-10T02:14:21;15.50;92.20
42037;DHT22;30340;52.004;5.908;2023-05-10T02:16:48;15.50;92.20
42037;DHT22;30340;52.004;5.908;2023-05-10T02:19:17;15.60;92.20
42037;DHT22;30340;52.004;5.908;2023-05-10T02:21:43;15.60;92.20
42037;DHT22;30340;52.004;5.908;2023-05-10T02:24:10;15.60;92.20
42037;DHT22;30340;52.004;5.908;2023-05-10T02:26:38;15.60;92.20
42037;DHT22;30340;52.004;5.908;2023-05-10T02:29:05;15.60;92.20
42037;DHT22;30340;52.004;5.908;2023-05-10T02:31:32;15.60;92.20
42037;DHT22;30340;52.004;5.908;2023-05-10T02:33:59;15.60;92.50
42037;DHT22;30340;52.004;5.908;2023-05-10T02:36:26;15.60;92.20
42037;DHT22;30340;52.004;5.908;2023-05-10T02:38:53;15.60;92.20
42037;DHT22;30340;52.004;5.908;2023-05-10T02:41:20;15.60;92.50
42037;DHT22;30340;52.004;5.908;2023-05-10T02:43:50;15.60;92.30
42037;DHT22;30340;52.004;5.908;2023-05-10T02:46:16;15.60;92.30
42037;DHT22;30340;52.004;5.908;2023-05-10T02:48:41;15.60;92.30
42037;DHT22;30340;52.004;5.908;2023-05-10T02:51:08;15.60;92.20
42037;DHT22;30340;52.004;5.908;2023-05-10T02:53:36;15.60;92.20
42037;DHT22;30340;52.004;5.908;2023-05-10T02:56:05;15.60;92.30
42037;DHT22;30340;52.004;5.908;2023-05-10T02:58:36;15.60;92.30
42037;DHT22;30340;52.004;5.908;2023-05-10T03:01:01;15.60;92.30
42037;DHT22;30340;52.004;5.908;2023-05-10T03:03:27;15.50;92.30
42037;DHT22;30340;52.004;5.908;2023-05-10T03:05:53;15.50;92.30
42037;DHT22;30340;52.004;5.908;2023-05-10T03:08:22;15.40;92.30
42037;DHT22;30340;52.004;5.908;2023-05-10T03:11:06;15.40;92.30
42037;DHT22;30340;52.004;5.908;2023-05-10T03:13:41;15.40;92.30
42037;DHT22;30340;52.004;5.908;2023-05-10T03:16:14;15.40;92.70
42037;DHT22;30340;52.004;5.908;2023-05-10T03:19:10;15.30;92.40
42037;DHT22;30340;52.004;5.908;2023-05-10T03:21:38;15.40;92.40
42037;DHT22;30340;52.004;5.908;2023-05-10T03:24:08;15.40;92.40
42037;DHT22;30340;52.004;5.908;2023-05-10T03:26:37;15.40;92.50
42037;DHT22;30340;52.004;5.908;2023-05-10T03:29:05;15.40;92.70
42037;DHT22;30340;52.004;5.908;2023-05-10T03:31:31;15.40;92.40
42037;DHT22;30340;52.004;5.908;2023-05-10T03:33:57;15.30;92.40
42037;DHT22;30340;52.004;5.908;2023-05-10T03:36:23;15.30;92.40
42037;DHT22;30340;52.004;5.908;2023-05-10T03:38:48;15.30;92.40
42037;DHT22;30340;52.004;5.908;2023-05-10T03:41:14;15.30;92.30
42037;DHT22;30340;52.004;5.908;2023-05-10T03:43:40;15.30;92.30
42037;DHT22;30340;52.004;5.908;2023-05-10T03:46:06;15.40;92.30
42037;DHT22;30340;52.004;5.908;2023-05-10T03:48:32;15.30;92.20
42037;DHT22;30340;52.004;5.908;2023-05-10T03:50:58;15.30;92.20
42037;DHT22;30340;52.004;5.908;2023-05-10T03:53:24;15.30;92.20
42037;DHT22;30340;52.004;5.908;2023-05-10T03:55:50;15.30;92.20
42037;DHT22;30340;52.004;5.908;2023-05-10T03:58:16;15.30;92.20
42037;DHT22;30340;52.004;5.908;2023-05-10T04:00:41;15.30;92.10
42037;DHT22;30340;52.004;5.908;2023-05-10T04:03:10;15.20;92.00
42037;DHT22;30340;52.004;5.908;2023-05-10T04:05:36;15.20;92.10
42037;DHT22;30340;52.004;5.908;2023-05-10T04:08:02;15.10;92.10
42037;DHT22;30340;52.004;5.908;2023-05-10T04:10:28;15.10;92.20
42037;DHT22;30340;52.004;5.908;2023-05-10T04:12:54;15.10;92.20
42037;DHT22;30340;52.004;5.908;2023-05-10T04:15:19;15.20;92.20
42037;DHT22;30340;52.004;5.908;2023-05-10T04:17:45;15.10;92.20
42037;DHT22;30340;52.004;5.908;2023-05-10T04:20:11;15.20;92.20
42037;DHT22;30340;52.004;5.908;2023-05-10T04:22:37;15.10;92.10
42037;DHT22;30340;52.004;5.908;2023-05-10T04:25:03;15.20;92.10
42037;DHT22;30340;52.004;5.908;2023-05-10T04:27:30;15.10;92.10
42037;DHT22;30340;52.004;5.908;2023-05-10T04:29:55;15.10;92.20
42037;DHT22;30340;52.004;5.908;2023-05-10T04:32:21;15.10;92.20
42037;DHT22;30340;52.004;5.908;2023-05-10T04:34:46;15.10;92.10
42037;DHT22;30340;52.004;5.908;2023-05-10T04:37:12;15.00;92.10
42037;DHT22;30340;52.004;5.908;2023-05-10T04:39:37;15.00;92.20
42037;DHT22;30340;52.004;5.908;2023-05-10T04:42:03;15.00;92.20
42037;DHT22;30340;52.004;5.908;2023-05-10T04:44:33;15.00;92.20
42037;DHT22;30340;52.004;5.908;2023-05-10T04:46:59;15.00;92.20
42037;DHT22;30340;52.004;5.908;2023-05-10T04:49:25;15.00;92.20
42037;DHT22;30340;52.004;5.908;2023-05-10T04:51:50;15.00;92.30
42037;DHT22;30340;52.004;5.908;2023-05-10T04:54:16;15.00;92.30
42037;DHT22;30340;52.004;5.908;2023-05-10T04:56:41;15.00;92.30
42037;DHT22;30340;52.004;5.908;2023-05-10T04:59:07;15.00;92.30
42037;DHT22;30340;52.004;5.908;2023-05-10T05:01:33;14.90;92.30
42037;DHT22;30340;52.004;5.908;2023-05-10T05:03:59;15.00;92.30
42037;DHT22;30340;52.004;5.908;2023-05-10T05:06:24;15.00;92.30
42037;DHT22;30340;52.004;5.908;2023-05-10T05:08:51;15.00;92.30
42037;DHT22;30340;52.004;5.908;2023-05-10T05:11:17;15.00;92.40
42037;DHT22;30340;52.004;5.908;2023-05-10T05:13:42;15.00;92.30
42037;DHT22;30340;52.004;5.908;2023-05-10T05:16:08;14.90;92.30
42037;DHT22;30340;52.004;5.908;2023-05-10T05:18:34;14.90;92.30
42037;DHT22;30340;52.004;5.908;2023-05-10T05:20:59;15.00;92.40
42037;DHT22;30340;52.004;5.908;2023-05-10T05:23:25;15.10;92.30
42037;DHT22;30340;52.004;5.908;2023-05-10T05:25:52;15.00;92.30
42037;DHT22;30340;52.004;5.908;2023-05-10T05:28:19;15.00;92.30
42037;DHT22;30340;52.004;5.908;2023-05-10T05:30:45;15.10;92.20
42037;DHT22;30340;52.004;5.908;2023-05-10T05:33:10;15.10;92.20
42037;DHT22;30340;52.004;5.908;2023-05-10T05:35:36;15.10;92.20
42037;DHT22;30340;52.004;5.908;2023-05-10T05:38:02;15.20;92.20
42037;DHT22;30340;52.004;5.908;2023-05-10T05:40:27;15.20;92.20
42037;DHT22;30340;52.004;5.908;2023-05-10T05:42:53;15.20;92.10
42037;DHT22;30340;52.004;5.908;2023-05-10T05:45:18;15.20;92.00
42037;DHT22;30340;52.004;5.908;2023-05-10T05:47:44;15.20;92.10
42037;DHT22;30340;52.004;5.908;2023-05-10T05:50:10;15.20;92.20
42037;DHT22;30340;52.004;5.908;2023-05-10T05:52:35;15.20;92.30
42037;DHT22;30340;52.004;5.908;2023-05-10T05:55:01;15.20;92.30
42037;DHT22;30340;52.004;5.908;2023-05-10T05:57:27;15.20;92.30
42037;DHT22;30340;52.004;5.908;2023-05-10T05:59:52;15.30;92.30
42037;DHT22;30340;52.004;5.908;2023-05-10T06:02:18;15.30;92.20
42037;DHT22;30340;52.004;5.908;2023-05-10T06:04:43;15.30;92.20
42037;DHT22;30340;52.004;5.908;2023-05-10T06:07:09;15.30;92.20
42037;DHT22;30340;52.004;5.908;2023-05-10T06:09:35;15.20;92.10
42037;DHT22;30340;52.004;5.908;2023-05-10T06:12:00;15.20;92.20
42037;DHT22;30340;52.004;5.908;2023-05-10T06:14:26;15.20;92.20
42037;DHT22;30340;52.004;5.908;2023-05-10T06:16:52;15.20;92.30
42037;DHT22;30340;52.004;5.908;2023-05-10T06:19:18;15.20;92.30
42037;DHT22;30340;52.004;5.908;2023-05-10T06:21:43;15.20;92.40
42037;DHT22;30340;52.004;5.908;2023-05-10T06:24:09;15.10;92.40
42037;DHT22;30340;52.004;5.908;2023-05-10T06:26:35;15.10;92.50
42037;DHT22;30340;52.004;5.908;2023-05-10T06:29:01;15.10;92.50
42037;DHT22;30340;52.004;5.908;2023-05-10T06:31:27;15.10;92.50
42037;DHT22;30340;52.004;5.908;2023-05-10T06:33:53;15.10;92.60
42037;DHT22;30340;52.004;5.908;2023-05-10T06:36:18;15.10;92.60
42037;DHT22;30340;52.004;5.908;2023-05-10T06:38:44;15.10;92.50
42037;DHT22;30340;52.004;5.908;2023-05-10T06:41:10;15.10;92.50
42037;DHT22;30340;52.004;5.908;2023-05-10T06:43:35;15.10;92.50
42037;DHT22;30340;52.004;5.908;2023-05-10T06:46:02;15.00;92.60
42037;DHT22;30340;52.004;5.908;2023-05-10T06:48:27;15.10;92.60
42037;DHT22;30340;52.004;5.908;2023-05-10T06:50:53;15.00;92.60
42037;DHT22;30340;52.004;5.908;2023-05-10T06:53:19;15.00;92.60
42037;DHT22;30340;52.004;5.908;2023-05-10T06:55:44;15.00;92.70
42037;DHT22;30340;52.004;5.908;2023-05-10T06:58:10;15.00;92.60
42037;DHT22;30340;52.004;5.908;2023-05-10T07:00:35;15.00;92.60
42037;DHT22;30340;52.004;5.908;2023-05-10T07:03:05;15.10;92.70
42037;DHT22;30340;52.004;5.908;2023-05-10T07:05:31;15.10;92.70
42037;DHT22;30340;52.004;5.908;2023-05-10T07:07:57;15.20;92.60
42037;DHT22;30340;52.004;5.908;2023-05-10T07:10:22;15.30;92.50
42037;DHT22;30340;52.004;5.908;2023-05-10T07:12:48;15.30;92.40
42037;DHT22;30340;52.004;5.908;2023-05-10T07:15:13;15.30;92.40
42037;DHT22;30340;52.004;5.908;2023-05-10T07:17:39;15.20;92.70
42037;DHT22;30340;52.004;5.908;2023-05-10T07:20:05;15.30;92.50
42037;DHT22;30340;52.004;5.908;2023-05-10T07:22:31;15.30;92.40
42037;DHT22;30340;52.004;5.908;2023-05-10T07:24:56;15.30;92.40
42037;DHT22;30340;52.004;5.908;2023-05-10T07:27:22;15.40;92.40
42037;DHT22;30340;52.004;5.908;2023-05-10T07:29:47;15.30;92.40
42037;DHT22;30340;52.004;5.908;2023-05-10T07:32:13;15.40;92.40
42037;DHT22;30340;52.004;5.908;2023-05-10T07:34:39;15.40;92.40
42037;DHT22;30340;52.004;5.908;2023-05-10T07:37:04;15.40;92.40
42037;DHT22;30340;52.004;5.908;2023-05-10T07:39:31;15.40;92.40
42037;DHT22;30340;52.004;5.908;2023-05-10T07:41:57;15.40;92.40
42037;DHT22;30340;52.004;5.908;2023-05-10T07:44:22;15.40;92.40
42037;DHT22;30340;52.004;5.908;2023-05-10T07:46:48;15.50;92.40
42037;DHT22;30340;52.004;5.908;2023-05-10T07:49:14;15.60;92.30
42037;DHT22;30340;52.004;5.908;2023-05-10T07:51:40;15.60;92.20
42037;DHT22;30340;52.004;5.908;2023-05-10T07:54:07;15.70;92.10
42037;DHT22;30340;52.004;5.908;2023-05-10T07:56:33;15.70;92.00
42037;DHT22;30340;52.004;5.908;2023-05-10T07:58:59;15.70;92.00
42037;DHT22;30340;52.004;5.908;2023-05-10T08:01:25;15.70;92.00
42037;DHT22;30340;52.004;5.908;2023-05-10T08:03:51;15.80;91.90
42037;DHT22;30340;52.004;5.908;2023-05-10T08:06:19;15.80;91.80
42037;DHT22;30340;52.004;5.908;2023-05-10T08:08:46;15.90;91.70
42037;DHT22;30340;52.004;5.908;2023-05-10T08:11:17;15.90;91.70
42037;DHT22;30340;52.004;5.908;2023-05-10T08:13:46;16.00;91.60
42037;DHT22;30340;52.004;5.908;2023-05-10T08:16:12;16.00;91.60
42037;DHT22;30340;52.004;5.908;2023-05-10T08:18:38;16.00;91.60
42037;DHT22;30340;52.004;5.908;2023-05-10T08:21:04;16.00;91.50
42037;DHT22;30340;52.004;5.908;2023-05-10T08:23:30;16.00;91.50
42037;DHT22;30340;52.004;5.908;2023-05-10T08:25:56;16.00;91.40
42037;DHT22;30340;52.004;5.908;2023-05-10T08:28:21;16.10;91.40
42037;DHT22;30340;52.004;5.908;2023-05-10T08:30:47;16.10;91.30
42037;DHT22;30340;52.004;5.908;2023-05-10T08:33:12;16.20;91.30
42037;DHT22;30340;52.004;5.908;2023-05-10T08:35:38;16.20;91.20
42037;DHT22;30340;52.004;5.908;2023-05-10T08:38:03;16.30;91.00
42037;DHT22;30340;52.004;5.908;2023-05-10T08:40:29;16.20;90.80
42037;DHT22;30340;52.004;5.908;2023-05-10T08:43:04;16.20;90.80
42037;DHT22;30340;52.004;5.908;2023-05-10T08:45:33;16.20;90.90
42037;DHT22;30340;52.004;5.908;2023-05-10T08:48:01;16.20;90.90
42037;DHT22;30340;52.004;5.908;2023-05-10T08:50:27;16.00;90.60
42037;DHT22;30340;52.004;5.908;2023-05-10T08:52:58;16.00;90.70
42037;DHT22;30340;52.004;5.908;2023-05-10T08:55:25;15.80;90.70
42037;DHT22;30340;52.004;5.908;2023-05-10T08:57:51;15.80;90.80
42037;DHT22;30340;52.004;5.908;2023-05-10T09:00:17;15.70;90.80
42037;DHT22;30340;52.004;5.908;2023-05-10T09:02:44;15.80;90.90
42037;DHT22;30340;52.004;5.908;2023-05-10T09:05:11;15.80;90.80
42037;DHT22;30340;52.004;5.908;2023-05-10T09:07:37;15.80;90.80
42037;DHT22;30340;52.004;5.908;2023-05-10T09:10:04;15.70;90.70
42037;DHT22;30340;52.004;5.908;2023-05-10T09:12:30;15.60;90.80
42037;DHT22;30340;52.004;5.908;2023-05-10T09:14:56;15.70;90.90
42037;DHT22;30340;52.004;5.908;2023-05-10T09:17:24;15.70;90.80
42037;DHT22;30340;52.004;5.908;2023-05-10T09:19:50;15.80;90.80
42037;DHT22;30340;52.004;5.908;2023-05-10T09:22:16;15.90;90.60
42037;DHT22;30340;52.004;5.908;2023-05-10T09:24:43;16.00;90.30
42037;DHT22;30340;52.004;5.908;2023-05-10T09:27:10;16.20;90.10
42037;DHT22;30340;52.004;5.908;2023-05-10T09:29:42;16.30;89.80
42037;DHT22;30340;52.004;5.908;2023-05-10T09:32:08;16.50;89.20
42037;DHT22;30340;52.004;5.908;2023-05-10T09:34:33;16.60;88.70
42037;DHT22;30340;52.004;5.908;2023-05-10T09:37:02;16.60;88.60
42037;DHT22;30340;52.004;5.908;2023-05-10T09:39:38;16.60;88.40
42037;DHT22;30340;52.004;5.908;2023-05-10T09:42:06;16.70;88.10
42037;DHT22;30340;52.004;5.908;2023-05-10T09:44:32;16.60;87.50
42037;DHT22;30340;52.004;5.908;2023-05-10T09:46:58;16.60;87.30
42037;DHT22;30340;52.004;5.908;2023-05-10T09:49:24;16.70;87.20
42037;DHT22;30340;52.004;5.908;2023-05-10T09:52:06;16.80;86.80
42037;DHT22;30340;52.004;5.908;2023-05-10T09:54:32;16.70;86.40
42037;DHT22;30340;52.004;5.908;2023-05-10T09:56:59;16.70;86.00
42037;DHT22;30340;52.004;5.908;2023-05-10T09:59:26;16.60;85.90
42037;DHT22;30340;52.004;5.908;2023-05-10T10:01:55;16.60;86.00
42037;DHT22;30340;52.004;5.908;2023-05-10T10:04:21;16.60;86.00
42037;DHT22;30340;52.004;5.908;2023-05-10T10:07:01;16.70;86.00
42037;DHT22;30340;52.004;5.908;2023-05-10T10:09:28;16.70;85.80
42037;DHT22;30340;52.004;5.908;2023-05-10T10:11:54;16.70;85.50
42037;DHT22;30340;52.004;5.908;2023-05-10T10:14:20;16.80;85.20
42037;DHT22;30340;52.004;5.908;2023-05-10T10:16:47;16.80;85.10
42037;DHT22;30340;52.004;5.908;2023-05-10T10:19:12;16.90;85.10
42037;DHT22;30340;52.004;5.908;2023-05-10T10:21:38;17.00;84.90
42037;DHT22;30340;52.004;5.908;2023-05-10T10:24:04;16.90;84.50
42037;DHT22;30340;52.004;5.908;2023-05-10T10:26:33;16.90;84.50
42037;DHT22;30340;52.004;5.908;2023-05-10T10:34:43;17.00;84.10
42037;DHT22;30340;52.004;5.908;2023-05-10T10:37:09;17.00;83.90
42037;DHT22;30340;52.004;5.908;2023-05-10T10:39:35;17.00;83.70
42037;DHT22;30340;52.004;5.908;2023-05-10T10:42:02;17.00;83.60
42037;DHT22;30340;52.004;5.908;2023-05-10T10:52:25;17.50;83.20
42037;DHT22;30340;52.004;5.908;2023-05-10T10:57:55;17.70;81.10
42037;DHT22;30340;52.004;5.908;2023-05-10T11:03:05;17.90;80.30
42037;DHT22;30340;52.004;5.908;2023-05-10T11:05:37;17.90;80.40
42037;DHT22;30340;52.004;5.908;2023-05-10T11:08:39;18.00;80.20
42037;DHT22;30340;52.004;5.908;2023-05-10T11:11:06;18.00;79.90
42037;DHT22;30340;52.004;5.908;2023-05-10T11:13:44;18.00;79.70
42037;DHT22;30340;52.004;5.908;2023-05-10T11:16:30;18.10;79.80
42037;DHT22;30340;52.004;5.908;2023-05-10T11:19:10;18.20;79.90
42037;DHT22;30340;52.004;5.908;2023-05-10T11:21:47;18.30;79.70
42037;DHT22;30340;52.004;5.908;2023-05-10T11:24:15;18.30;79.30
42037;DHT22;30340;52.004;5.908;2023-05-10T11:26:41;18.30;79.00
42037;DHT22;30340;52.004;5.908;2023-05-10T11:29:07;18.40;78.70
42037;DHT22;30340;52.004;5.908;2023-05-10T11:31:32;18.40;78.40
42037;DHT22;30340;52.004;5.908;2023-05-10T11:33:59;18.50;78.20
42037;DHT22;30340;52.004;5.908;2023-05-10T11:36:28;18.60;78.30
42037;DHT22;30340;52.004;5.908;2023-05-10T11:38:56;18.50;77.90
42037;DHT22;30340;52.004;5.908;2023-05-10T11:41:23;18.50;77.40
42037;DHT22;30340;52.004;5.908;2023-05-10T11:43:53;18.50;76.90
42037;DHT22;30340;52.004;5.908;2023-05-10T11:46:21;18.40;76.90
42037;DHT22;30340;52.004;5.908;2023-05-10T11:48:49;18.40;77.20
42037;DHT22;30340;52.004;5.908;2023-05-10T11:51:23;18.50;77.30
42037;DHT22;30340;52.004;5.908;2023-05-10T11:53:49;18.50;77.20
42037;DHT22;30340;52.004;5.908;2023-05-10T11:56:15;18.60;77.00
42037;DHT22;30340;52.004;5.908;2023-05-10T11:58:41;18.60;76.80
42037;DHT22;30340;52.004;5.908;2023-05-10T12:01:08;18.60;76.60
42037;DHT22;30340;52.004;5.908;2023-05-10T12:03:34;18.60;76.50
42037;DHT22;30340;52.004;5.908;2023-05-10T12:06:01;18.50;76.20
42037;DHT22;30340;52.004;5.908;2023-05-10T12:08:28;18.50;76.30
42037;DHT22;30340;52.004;5.908;2023-05-10T12:11:08;18.50;76.40
42037;DHT22;30340;52.004;5.908;2023-05-10T12:13:39;18.50;76.40
42037;DHT22;30340;52.004;5.908;2023-05-10T12:16:21;18.50;76.40
42037;DHT22;30340;52.004;5.908;2023-05-10T12:18:51;18.60;76.20
42037;DHT22;30340;52.004;5.908;2023-05-10T12:21:18;18.60;75.80
42037;DHT22;30340;52.004;5.908;2023-05-10T12:23:46;18.80;75.90
42037;DHT22;30340;52.004;5.908;2023-05-10T12:26:12;19.00;75.60
42037;DHT22;30340;52.004;5.908;2023-05-10T12:28:38;19.20;75.30
42037;DHT22;30340;52.004;5.908;2023-05-10T12:31:08;19.40;74.70
42037;DHT22;30340;52.004;5.908;2023-05-10T12:33:38;19.50;74.20
42037;DHT22;30340;52.004;5.908;2023-05-10T12:36:04;19.60;73.20
42037;DHT22;30340;52.004;5.908;2023-05-10T12:38:38;19.50;72.40
42037;DHT22;30340;52.004;5.908;2023-05-10T12:41:06;19.60;72.60
42037;DHT22;30340;52.004;5.908;2023-05-10T12:43:33;19.70;72.40
42037;DHT22;30340;52.004;5.908;2023-05-10T12:46:14;19.70;71.80
42037;DHT22;30340;52.004;5.908;2023-05-10T12:48:42;19.70;71.60
42037;DHT22;30340;52.004;5.908;2023-05-10T12:51:08;19.80;71.50
42037;DHT22;30340;52.004;5.908;2023-05-10T12:53:35;19.80;71.50
42037;DHT22;30340;52.004;5.908;2023-05-10T12:56:00;19.90;71.40
42037;DHT22;30340;52.004;5.908;2023-05-10T12:58:26;20.00;71.10
42037;DHT22;30340;52.004;5.908;2023-05-10T13:00:52;20.00;70.60
42037;DHT22;30340;52.004;5.908;2023-05-10T13:03:18;20.00;70.80
42037;DHT22;30340;52.004;5.908;2023-05-10T13:05:43;20.00;70.70
42037;DHT22;30340;52.004;5.908;2023-05-10T13:08:09;19.90;70.10
42037;DHT22;30340;52.004;5.908;2023-05-10T13:10:34;20.00;70.50
42037;DHT22;30340;52.004;5.908;2023-05-10T13:13:00;20.00;70.10
42037;DHT22;30340;52.004;5.908;2023-05-10T13:15:26;19.90;69.70
42037;DHT22;30340;52.004;5.908;2023-05-10T13:17:52;19.90;70.00
42037;DHT22;30340;52.004;5.908;2023-05-10T13:20:18;20.00;70.40
42037;DHT22;30340;52.004;5.908;2023-05-10T13:22:44;20.20;70.50
42037;DHT22;30340;52.004;5.908;2023-05-10T13:25:10;20.20;70.30
42037;DHT22;30340;52.004;5.908;2023-05-10T13:27:36;20.30;70.10
42037;DHT22;30340;52.004;5.908;2023-05-10T13:30:03;20.30;69.80
42037;DHT22;30340;52.004;5.908;2023-05-10T13:32:29;20.30;69.30
42037;DHT22;30340;52.004;5.908;2023-05-10T13:34:55;20.20;69.10
42037;DHT22;30340;52.004;5.908;2023-05-10T13:37:20;20.10;69.10
42037;DHT22;30340;52.004;5.908;2023-05-10T13:39:46;20.00;69.60
42037;DHT22;30340;52.004;5.908;2023-05-10T13:42:12;19.90;68.90
42037;DHT22;30340;52.004;5.908;2023-05-10T13:44:38;19.90;69.30
42037;DHT22;30340;52.004;5.908;2023-05-10T13:47:04;19.90;69.30
42037;DHT22;30340;52.004;5.908;2023-05-10T13:49:30;19.90;69.40
42037;DHT22;30340;52.004;5.908;2023-05-10T13:51:55;19.80;69.10
42037;DHT22;30340;52.004;5.908;2023-05-10T13:54:21;19.80;69.10
42037;DHT22;30340;52.004;5.908;2023-05-10T13:56:47;19.80;68.90
42037;DHT22;30340;52.004;5.908;2023-05-10T13:59:13;19.60;69.60
42037;DHT22;30340;52.004;5.908;2023-05-10T14:01:42;19.40;70.40
42037;DHT22;30340;52.004;5.908;2023-05-10T14:04:09;19.30;71.20
42037;DHT22;30340;52.004;5.908;2023-05-10T14:06:36;19.10;72.00
42037;DHT22;30340;52.004;5.908;2023-05-10T14:09:02;19.00;72.70
42037;DHT22;30340;52.004;5.908;2023-05-10T14:11:28;18.80;73.40
42037;DHT22;30340;52.004;5.908;2023-05-10T14:13:54;18.70;73.70
42037;DHT22;30340;52.004;5.908;2023-05-10T14:16:20;18.70;74.20
42037;DHT22;30340;52.004;5.908;2023-05-10T14:18:46;18.60;74.50
42037;DHT22;30340;52.004;5.908;2023-05-10T14:21:12;18.50;74.90
42037;DHT22;30340;52.004;5.908;2023-05-10T14:23:37;18.30;75.60
42037;DHT22;30340;52.004;5.908;2023-05-10T14:26:03;18.20;76.20
42037;DHT22;30340;52.004;5.908;2023-05-10T14:28:29;18.20;76.60
42037;DHT22;30340;52.004;5.908;2023-05-10T14:30:54;18.20;76.90
42037;DHT22;30340;52.004;5.908;2023-05-10T14:33:20;18.10;77.40
42037;DHT22;30340;52.004;5.908;2023-05-10T14:35:46;18.00;77.90
42037;DHT22;30340;52.004;5.908;2023-05-10T14:38:12;18.00;78.30
42037;DHT22;30340;52.004;5.908;2023-05-10T14:40:38;17.90;78.60
42037;DHT22;30340;52.004;5.908;2023-05-10T14:43:03;17.90;78.90
42037;DHT22;30340;52.004;5.908;2023-05-10T14:45:29;17.80;79.30
42037;DHT22;30340;52.004;5.908;2023-05-10T14:47:54;17.70;79.80
42037;DHT22;30340;52.004;5.908;2023-05-10T14:50:20;17.60;80.50
42037;DHT22;30340;52.004;5.908;2023-05-10T14:52:46;17.50;80.90
42037;DHT22;30340;52.004;5.908;2023-05-10T14:55:11;17.50;81.10
42037;DHT22;30340;52.004;5.908;2023-05-10T14:57:37;17.40;81.20
42037;DHT22;30340;52.004;5.908;2023-05-10T15:00:03;17.30;81.50
42037;DHT22;30340;52.004;5.908;2023-05-10T15:02:30;17.30;81.70
42037;DHT22;30340;52.004;5.908;2023-05-10T15:04:56;17.30;82.00
42037;DHT22;30340;52.004;5.908;2023-05-10T15:07:22;17.30;82.20
42037;DHT22;30340;52.004;5.908;2023-05-10T15:09:48;17.30;82.10
42037;DHT22;30340;52.004;5.908;2023-05-10T15:12:14;17.30;81.90
42037;DHT22;30340;52.004;5.908;2023-05-10T15:14:39;17.30;82.00
42037;DHT22;30340;52.004;5.908;2023-05-10T15:17:06;17.40;82.20
42037;DHT22;30340;52.004;5.908;2023-05-10T15:19:32;17.40;82.20
42037;DHT22;30340;52.004;5.908;2023-05-10T15:21:58;17.40;82.20
42037;DHT22;30340;52.004;5.908;2023-05-10T15:24:24;17.50;81.90
42037;DHT22;30340;52.004;5.908;2023-05-10T15:26:50;17.50;81.70
42037;DHT22;30340;52.004;5.908;2023-05-10T15:29:15;17.50;81.70
42037;DHT22;30340;52.004;5.908;2023-05-10T15:31:46;17.50;81.60
42037;DHT22;30340;52.004;5.908;2023-05-10T15:34:11;17.50;81.70
42037;DHT22;30340;52.004;5.908;2023-05-10T15:36:37;17.60;81.50
42037;DHT22;30340;52.004;5.908;2023-05-10T15:39:02;17.50;81.20
42037;DHT22;30340;52.004;5.908;2023-05-10T15:41:29;17.50;81.30
42037;DHT22;30340;52.004;5.908;2023-05-10T15:43:55;17.60;81.30
42037;DHT22;30340;52.004;5.908;2023-05-10T15:46:21;17.70;81.10
42037;DHT22;30340;52.004;5.908;2023-05-10T15:48:46;17.60;80.70
42037;DHT22;30340;52.004;5.908;2023-05-10T15:51:12;17.60;80.80
42037;DHT22;30340;52.004;5.908;2023-05-10T15:53:38;17.60;80.70
42037;DHT22;30340;52.004;5.908;2023-05-10T15:56:04;17.50;80.80